Overview Statistics Trail Chart Weather Telemetry Raw packets
 

This is the latest recevied weather packets stored in our database for station/object OK2ZAW-21. If no packets are shown the sender has not sent any weather packets the latest 10 day(s).

<< 35 36 37 38 39 40 41 >>
Time Temp. Humidity Pressure Rain* Wind** Luminosity Snow
1788440971 20.56° C 56% 1022.8 hPa - - 424 W/m² -
1788440660 20° C 57% 1022.7 hPa - - 424 W/m² -
1788440348 20.56° C 54% 1022.6 hPa - - 424 W/m² -
1788440037 20.56° C 55% 1022.6 hPa - - 424 W/m² -
1788439726 21.11° C 57% 1022.6 hPa - - 424 W/m² -
1788439414 20.56° C 60% 1022.7 hPa - - 425 W/m² -
1788439103 20° C 62% 1022.7 hPa - - 425 W/m² -
1788438791 20° C 61% 1022.5 hPa - - 425 W/m² -
1788438480 20.56° C 60% 1022.7 hPa - - 425 W/m² -
1788438169 20.56° C 58% 1022.9 hPa - - 425 W/m² -
1788437235 20.56° C 58% 1023.2 hPa - - 425 W/m² -
1788436923 19.44° C 59% 1022.5 hPa - - 425 W/m² -
1788436612 20° C 59% 1023 hPa - - 425 W/m² -
1788436301 20.56° C 62% 1023.3 hPa - - 426 W/m² -
1788435989 20.56° C 61% 1023.3 hPa - - 425 W/m² -
1788435678 20.56° C 61% 1023.4 hPa - - 426 W/m² -
1788435366 20° C 64% 1023.5 hPa - - 426 W/m² -
1788435055 21.11° C 60% 1023.5 hPa - - 426 W/m² -
1788434743 21.11° C 59% 1023.5 hPa - - 426 W/m² -
1788434432 20.56° C 62% 1023.4 hPa - - 426 W/m² -
1788434120 21.11° C 59% 1023.3 hPa - - 427 W/m² -
1788433809 20° C 61% 1023.5 hPa - - 427 W/m² -
1788433498 20° C 61% 1023.5 hPa - - 428 W/m² -
1788433186 20.56° C 60% 1023.4 hPa - - 428 W/m² -
1788432875 20.56° C 62% 1023.5 hPa - - 428 W/m² -

* Rain since midnight (hover to see other rain measurements)
** Current wind speed in m/s (hover to see current wind gust speed)